KOSH/OSH METAR and TAF weather

Enter ICAO airport designator
Station Type Date Time Source
KOSH METAR 2019/02/20 22:53 UTC NOAA

KOSH 202253Z 18010KT 7SM BKN013 OVC019 00/M01 A2959 RMK AO2 SNE42 SLP036 P0000 T00001011


Station Type Date Time Source
KOSH Decoded METAR 2019/02/20 22:53 UTC NOAA

WITTMAN REGIONAL AIRPORT, WI, United States (KOSH) 43-58N 88-33W 248M
Feb 20, 2019 - 05:53 PM EST / 2019.02.20 2253 UTC
Wind: from the S (180 degrees) at 12 MPH (10 KT):0
Visibility: 7 mile(s):0
Sky conditions: overcast
Precipitation last hour: A trace
Temperature: 32.0 F (0.0 C)
Windchill: 23 F (-5 C):1
Dew Point: 30.0 F (-1.1 C)
Relative Humidity: 92%
Pressure (altimeter): 29.59 in. Hg (1002 hPa)
ob: KOSH 202253Z 18010KT 7SM BKN013 OVC019 00/M01 A2959 RMK AO2 SNE42 SLP036 P0000 T00001011
cycle: 23

Station Type Date Time Source
KOSH TAF 2018/10/11 06:22 UTC NOAA

TAF KOSH 110520Z 1106/1206 25016G28KT P6SM BKN015
FM111300 27017G28KT P6SM BKN020
FM111400 27018G29KT P6SM BKN015
FM112100 29018G30KT P6SM BKN050
FM120000 29013G24KT P6SM SCT120


Example: see airport list